Time;durP1;ratioP1;P1;durP2;ratioP2;P2;SDS_P1;SDS_P2;PMS_P1;PMS_P2;Temp;Humidity;BMP_temperature;BMP_pressure;BME280_temperature;BME280_humidity;BME280_pressure;Samples;Min_cycle;Max_cycle;Signal;HPM_P1;HPM_P2
2022/08/02 00:01:03;;;;;;;0.60;0.50;;;22.70;56.70;;;;;;6228637;28;20037;-67
2022/08/02 00:04:04;;;;;;;0.38;0.30;;;22.70;56.70;;;;;;6196334;28;20022;-68
2022/08/02 00:07:05;;;;;;;0.80;0.50;;;22.70;56.70;;;;;;6236817;28;20095;-67
2022/08/02 00:10:07;;;;;;;0.50;0.50;;;22.80;56.80;;;;;;6241081;28;20127;-68
2022/08/02 00:13:08;;;;;;;0.50;0.40;;;22.80;56.80;;;;;;6219240;28;20117;-67
2022/08/02 00:16:08;;;;;;;0.38;0.30;;;22.80;56.80;;;;;;6231694;28;20025;-68
2022/08/02 00:19:09;;;;;;;0.45;0.40;;;22.80;56.80;;;;;;6244931;28;20029;-69
2022/08/02 00:22:10;;;;;;;2.28;0.45;;;22.70;56.80;;;;;;6225050;28;20088;-67
2022/08/02 00:25:10;;;;;;;0.63;0.40;;;22.80;56.80;;;;;;6218335;28;20037;-69
2022/08/02 00:28:11;;;;;;;0.52;0.38;;;22.70;56.70;;;;;;6220047;28;20068;-68
2022/08/02 00:31:12;;;;;;;0.40;0.40;;;22.70;57.50;;;;;;6243136;28;20427;-68
2022/08/02 00:34:13;;;;;;;0.40;0.40;;;22.70;56.70;;;;;;6243911;28;20029;-68
2022/08/02 00:37:14;;;;;;;0.45;0.35;;;22.70;56.70;;;;;;6226375;28;20092;-67
2022/08/02 00:40:15;;;;;;;2.13;0.43;;;22.80;56.80;;;;;;6220623;28;20030;-68
2022/08/02 00:43:16;;;;;;;0.45;0.40;;;22.70;56.80;;;;;;6259607;28;20052;-68
2022/08/02 00:46:18;;;;;;;0.95;0.50;;;22.70;56.80;;;;;;6235446;28;20030;-68
2022/08/02 00:49:19;;;;;;;0.90;0.38;;;22.70;56.70;;;;;;6219125;28;20097;-68
2022/08/02 00:52:22;;;;;;;0.73;0.50;;;22.70;56.70;;;;;;6235919;28;20021;-68
2022/08/02 00:55:23;;;;;;;0.77;0.40;;;22.70;56.70;;;;;;6243870;28;20388;-67
2022/08/02 00:58:24;;;;;;;0.50;0.50;;;22.80;56.80;;;;;;6219121;28;20033;-68
2022/08/02 01:01:37;;;;;;;0.45;0.40;;;22.80;56.80;;;;;;6223239;28;20034;-67
2022/08/02 01:04:37;;;;;;;0.50;0.40;;;22.70;56.80;;;;;;6243061;28;20083;-67
2022/08/02 01:07:38;;;;;;;0.63;0.50;;;22.70;56.80;;;;;;6225380;28;20030;-68
2022/08/02 01:10:39;;;;;;;1.35;0.63;;;22.80;56.80;;;;;;6218383;28;20026;-68
2022/08/02 01:13:40;;;;;;;1.17;0.50;;;22.80;56.80;;;;;;6215665;28;20026;-67
2022/08/02 01:17:05;;;;;;;0.75;0.40;;;22.80;56.80;;;;;;6226192;28;20427;-67
2022/08/02 01:20:25;;;;;;;0.93;0.30;;;22.80;56.80;;;;;;6243641;28;20085;-68
2022/08/02 01:24:07;;;;;;;0.77;0.50;;;22.70;56.80;;;;;;6220615;28;20469;-66
2022/08/02 01:27:25;;;;;;;0.68;0.30;;;22.80;56.80;;;;;;6214325;28;20024;-67
2022/08/02 01:30:28;;;;;;;1.45;0.80;;;22.80;56.80;;;;;;6243304;28;20032;-67
2022/08/02 01:33:36;;;;;;;0.68;0.60;;;22.70;56.80;;;;;;6222890;28;20108;-67
2022/08/02 01:36:43;;;;;;;0.45;0.40;;;22.80;56.90;;;;;;6218650;28;20385;-68
2022/08/02 01:39:47;;;;;;;0.68;0.55;;;22.80;56.80;;;;;;6218895;28;20037;-68
2022/08/02 01:42:52;;;;;;;0.60;0.40;;;22.80;56.80;;;;;;6247005;28;20044;-68
2022/08/02 01:45:54;;;;;;;0.43;0.40;;;22.80;56.80;;;;;;6242354;28;20439;-68
2022/08/02 01:48:56;;;;;;;0.50;0.47;;;22.80;56.80;;;;;;6221230;28;20041;-67
2022/08/02 01:55:22;;;;;;;1.08;0.50;;;22.70;56.80;;;;;;6243707;28;20029;-67
2022/08/02 01:58:25;;;;;;;0.50;0.50;;;22.80;56.80;;;;;;6225699;28;20084;-67
2022/08/02 02:01:26;;;;;;;0.30;0.30;;;22.80;56.90;;;;;;6206484;28;20026;-67
2022/08/02 02:04:29;;;;;;;0.60;0.40;;;22.80;56.90;;;;;;6242289;28;20034;-68
2022/08/02 02:07:33;;;;;;;0.52;0.43;;;22.70;56.90;;;;;;6235546;28;20045;-66
2022/08/02 02:10:37;;;;;;;0.70;0.50;;;22.80;56.90;;;;;;6218474;28;20017;-68
2022/08/02 02:13:41;;;;;;;0.50;0.50;;;22.80;56.90;;;;;;6234276;28;20022;-68
2022/08/02 02:16:43;;;;;;;0.40;0.40;;;22.80;56.90;;;;;;6241425;28;20033;-66
2022/08/02 02:19:45;;;;;;;0.60;0.40;;;22.80;56.80;;;;;;6218630;28;20361;-68
2022/08/02 02:22:47;;;;;;;0.43;0.40;;;22.80;57.30;;;;;;6240975;28;20049;-68
2022/08/02 02:25:48;;;;;;;0.40;0.40;;;22.80;56.90;;;;;;6247291;28;20036;-67
2022/08/02 02:28:51;;;;;;;0.32;0.30;;;22.70;56.80;;;;;;6230078;28;20088;-67
2022/08/02 02:31:54;;;;;;;0.73;0.40;;;22.80;56.90;;;;;;6221844;28;20057;-67
2022/08/02 02:34:55;;;;;;;0.60;0.50;;;22.80;56.90;;;;;;6222503;28;20026;-68
2022/08/02 02:37:59;;;;;;;0.40;0.40;;;22.80;56.90;;;;;;6244166;28;20104;-67
2022/08/02 02:41:02;;;;;;;0.43;0.43;;;22.80;56.90;;;;;;6247012;28;20026;-68
2022/08/02 02:44:05;;;;;;;0.70;0.35;;;22.80;56.90;;;;;;6231598;28;20034;-68
2022/08/02 02:47:08;;;;;;;0.40;0.30;;;22.80;56.90;;;;;;6222182;28;20676;-68
2022/08/02 02:50:10;;;;;;;0.40;0.40;;;22.80;56.90;;;;;;6244541;28;20087;-68
2022/08/02 02:53:12;;;;;;;0.40;0.35;;;22.80;56.90;;;;;;6239524;28;20100;-68
2022/08/02 02:56:14;;;;;;;0.98;0.30;;;22.80;56.90;;;;;;6220823;28;20021;-67
2022/08/02 02:59:15;;;;;;;0.43;0.43;;;22.70;56.80;;;;;;6236817;28;20105;-68
2022/08/02 03:02:17;;;;;;;0.32;0.30;;;22.80;56.90;;;;;;6207514;28;20047;-67
2022/08/02 03:05:18;;;;;;;1.05;0.50;;;22.80;56.90;;;;;;6243045;28;20472;-68
2022/08/02 03:08:19;;;;;;;0.57;0.40;;;22.70;56.80;;;;;;6240045;28;20068;-68
2022/08/02 03:11:20;;;;;;;0.50;0.35;;;22.80;56.90;;;;;;6221630;28;20030;-66
2022/08/02 03:14:21;;;;;;;0.73;0.40;;;22.80;56.90;;;;;;6235209;28;20022;-67
2022/08/02 03:17:22;;;;;;;0.40;0.40;;;22.70;56.80;;;;;;6246231;28;20405;-68
2022/08/02 03:20:22;;;;;;;0.30;0.30;;;22.70;56.90;;;;;;6223353;28;20060;-67
2022/08/02 03:23:23;;;;;;;0.35;0.30;;;22.80;56.90;;;;;;6225375;28;20082;-67
2022/08/02 03:26:24;;;;;;;0.40;0.40;;;22.80;56.90;;;;;;6224218;28;20018;-68
2022/08/02 03:29:24;;;;;;;0.40;0.40;;;22.70;56.90;;;;;;6221164;28;20041;-68
2022/08/02 03:32:25;;;;;;;0.30;0.28;;;22.80;56.90;;;;;;6220892;28;20148;-68
2022/08/02 03:35:26;;;;;;;0.30;0.30;;;22.80;56.90;;;;;;6220399;28;20029;-68
2022/08/02 03:38:28;;;;;;;0.52;0.40;;;22.70;56.90;;;;;;6223666;28;20024;-67
2022/08/02 03:41:30;;;;;;;0.57;0.50;;;22.80;56.90;;;;;;6245274;28;20068;-67
2022/08/02 03:44:32;;;;;;;0.40;0.40;;;22.80;56.90;;;;;;6234139;28;20068;-67
2022/08/02 03:47:33;;;;;;;0.60;0.40;;;22.80;56.90;;;;;;6220384;28;20451;-68
2022/08/02 03:50:36;;;;;;;0.40;0.40;;;22.70;56.90;;;;;;6253646;28;20559;-67
2022/08/02 03:53:37;;;;;;;0.30;0.30;;;22.80;56.90;;;;;;6242058;28;20021;-67
2022/08/02 03:56:38;;;;;;;0.75;0.50;;;22.70;56.90;;;;;;6219669;28;20064;-67
2022/08/02 03:59:42;;;;;;;0.30;0.30;;;22.80;56.90;;;;;;6228211;28;20112;-67
2022/08/02 04:02:42;;;;;;;0.30;0.30;;;22.70;56.90;;;;;;6220507;28;20041;-67
2022/08/02 04:05:43;;;;;;;0.40;0.40;;;22.80;57.00;;;;;;6253853;28;20086;-68
2022/08/02 04:08:44;;;;;;;0.30;0.30;;;22.80;57.00;;;;;;6243675;28;20530;-67
2022/08/02 04:11:44;;;;;;;0.47;0.40;;;22.80;56.90;;;;;;6220313;28;20030;-67
2022/08/02 04:14:45;;;;;;;0.45;0.45;;;22.80;56.90;;;;;;6228621;28;20030;-67
2022/08/02 04:17:55;;;;;;;0.40;0.40;;;22.70;56.90;;;;;;6244855;28;20029;-67
2022/08/02 04:21:01;;;;;;;0.43;0.38;;;22.80;56.90;;;;;;6227067;28;20037;-67
2022/08/02 04:24:04;;;;;;;0.68;0.40;;;22.80;56.90;;;;;;6219501;28;20061;-68
2022/08/02 04:27:07;;;;;;;0.55;0.45;;;22.80;56.90;;;;;;6219952;28;20037;-68
2022/08/02 04:30:08;;;;;;;0.52;0.40;;;22.80;57.00;;;;;;6229655;28;20570;-67
2022/08/02 04:33:10;;;;;;;0.65;0.55;;;22.80;56.90;;;;;;6226125;28;20033;-67
2022/08/02 04:36:13;;;;;;;0.35;0.35;;;22.80;56.90;;;;;;6219322;28;20566;-67
2022/08/02 04:39:13;;;;;;;0.60;0.40;;;22.80;56.90;;;;;;6220529;28;20089;-67
2022/08/02 04:42:22;;;;;;;0.50;0.40;;;22.80;56.90;;;;;;6243590;28;20040;-67
2022/08/02 04:45:24;;;;;;;0.77;0.40;;;22.80;56.90;;;;;;6233963;28;20021;-68
2022/08/02 04:48:25;;;;;;;0.47;0.40;;;22.80;56.90;;;;;;6219267;28;20018;-67
2022/08/02 04:51:25;;;;;;;0.50;0.38;;;22.80;57.00;;;;;;6236997;28;20096;-68
2022/08/02 04:54:26;;;;;;;0.90;0.60;;;22.80;57.00;;;;;;6241957;28;20685;-68
2022/08/02 05:00:46;;;;;;;0.40;0.40;;;22.80;56.90;;;;;;6215457;28;20038;-67
2022/08/02 05:03:47;;;;;;;0.50;0.50;;;22.70;56.90;;;;;;6192076;28;20066;-67
2022/08/02 05:06:47;;;;;;;0.60;0.40;;;22.80;56.90;;;;;;6220164;28;20026;-68
2022/08/02 05:09:48;;;;;;;0.40;0.32;;;22.80;57.00;;;;;;6218118;28;20026;-67
2022/08/02 05:12:49;;;;;;;2.78;1.10;;;22.70;57.00;;;;;;6218654;28;20022;-68
2022/08/02 05:15:49;;;;;;;5.97;1.17;;;22.60;57.00;;;;;;6221806;28;20026;-68
2022/08/02 05:18:50;;;;;;;1.67;0.88;;;22.60;57.00;;;;;;6219048;28;20026;-68
2022/08/02 05:21:51;;;;;;;4.60;1.63;;;22.60;57.00;;;;;;6218417;28;20067;-68
2022/08/02 05:24:51;;;;;;;3.20;1.70;;;22.60;56.90;;;;;;6225715;28;20037;-68
2022/08/02 05:27:52;;;;;;;4.43;1.92;;;22.60;56.90;;;;;;6218596;28;20104;-68
2022/08/02 05:30:52;;;;;;;4.30;1.75;;;22.60;56.80;;;;;;6201419;28;20026;-68
2022/08/02 05:33:53;;;;;;;5.03;1.73;;;22.60;56.70;;;;;;6218431;28;20102;-68
2022/08/02 05:36:54;;;;;;;8.85;2.67;;;22.60;56.70;;;;;;6232483;28;20160;-68
2022/08/02 05:39:55;;;;;;;9.82;2.40;;;22.60;56.60;;;;;;6242896;28;20101;-68
2022/08/02 05:42:55;;;;;;;7.68;2.72;;;22.60;56.60;;;;;;6219882;28;20030;-68
2022/08/02 05:45:56;;;;;;;4.88;2.08;;;22.60;56.50;;;;;;6217230;28;20080;-68
2022/08/02 05:48:56;;;;;;;10.68;2.58;;;22.60;56.60;;;;;;6216894;28;20087;-68
2022/08/02 05:52:18;;;;;;;11.40;3.35;;;22.50;56.40;;;;;;6232016;28;20025;-68
2022/08/02 05:55:33;;;;;;;13.75;3.13;;;22.60;56.20;;;;;;6221827;28;20036;-68
2022/08/02 05:59:01;;;;;;;14.18;2.88;;;22.60;56.30;;;;;;6199388;28;20104;-68
2022/08/02 06:02:08;;;;;;;10.60;2.83;;;22.50;56.00;;;;;;6228361;28;20455;-68
2022/08/02 06:05:20;;;;;;;6.88;2.20;;;22.60;55.70;;;;;;6224541;28;20447;-68
2022/08/02 06:08:27;;;;;;;11.02;3.60;;;22.60;55.80;;;;;;6239932;28;20022;-68
2022/08/02 06:11:57;;;;;;;6.25;2.30;;;22.70;55.80;;;;;;6231552;28;20461;-67
2022/08/02 06:15:03;;;;;;;6.78;2.20;;;22.70;55.70;;;;;;6248145;28;20033;-67
2022/08/02 06:18:05;;;;;;;8.55;2.33;;;22.70;55.70;;;;;;6230135;28;20029;-68
2022/08/02 06:21:07;;;;;;;7.55;2.25;;;22.70;55.70;;;;;;6226612;28;20496;-68
2022/08/02 06:24:09;;;;;;;7.88;2.65;;;22.70;55.80;;;;;;6248600;28;20049;-67
2022/08/02 06:27:14;;;;;;;6.80;2.20;;;22.70;55.80;;;;;;6208967;28;20034;-67
2022/08/02 06:30:14;;;;;;;5.05;2.20;;;22.70;56.80;;;;;;6222930;28;20026;-67
2022/08/02 06:33:15;;;;;;;4.90;1.95;;;22.80;56.40;;;;;;6223142;28;20448;-67
2022/08/02 06:36:24;;;;;;;7.97;2.45;;;22.80;57.00;;;;;;6224548;28;20033;-67
2022/08/02 06:39:33;;;;;;;11.07;1.95;;;22.80;56.20;;;;;;6210440;28;20057;-67
2022/08/02 06:42:49;;;;;;;9.98;2.47;;;22.80;56.20;;;;;;6218171;28;20699;-67
2022/08/02 06:45:50;;;;;;;10.23;1.90;;;22.80;56.30;;;;;;6222703;28;20420;-68
2022/08/02 06:48:51;;;;;;;6.13;2.03;;;22.80;56.30;;;;;;6245004;28;20033;-66
2022/08/02 06:51:51;;;;;;;2.88;1.40;;;22.80;56.30;;;;;;6243808;28;20033;-66
2022/08/02 06:54:52;;;;;;;6.05;1.73;;;22.80;56.30;;;;;;6222563;28;20076;-67
2022/08/02 06:57:52;;;;;;;4.05;1.70;;;22.80;56.40;;;;;;6234424;28;20025;-67
2022/08/02 07:00:53;;;;;;;3.40;1.88;;;22.70;56.30;;;;;;6215576;28;20597;-67
2022/08/02 07:03:54;;;;;;;5.75;2.00;;;22.70;56.40;;;;;;6212711;28;20064;-67
2022/08/02 07:06:55;;;;;;;5.13;1.70;;;22.70;56.40;;;;;;6226581;28;20029;-67
2022/08/02 07:09:57;;;;;;;3.75;1.95;;;22.70;56.40;;;;;;6235545;28;20432;-67
2022/08/02 07:12:58;;;;;;;3.88;1.88;;;22.70;56.40;;;;;;6226769;28;20018;-67
2022/08/02 07:15:58;;;;;;;3.30;1.70;;;22.70;56.40;;;;;;6222554;28;20102;-66
2022/08/02 07:18:59;;;;;;;4.20;1.77;;;22.70;56.40;;;;;;6240231;28;20026;-66
2022/08/02 07:22:00;;;;;;;5.13;1.65;;;22.70;56.50;;;;;;6216872;28;20093;-67
2022/08/02 07:25:01;;;;;;;3.65;1.80;;;22.80;57.30;;;;;;6236081;28;20026;-69
2022/08/02 07:28:01;;;;;;;2.88;1.50;;;22.80;56.80;;;;;;6222911;28;20392;-69
2022/08/02 07:31:02;;;;;;;3.00;1.60;;;22.80;56.60;;;;;;6222882;28;20022;-67
2022/08/02 07:34:03;;;;;;;4.50;1.60;;;22.80;56.50;;;;;;6222402;28;20538;-68
2022/08/02 07:37:03;;;;;;;9.30;1.95;;;22.80;56.50;;;;;;6222827;28;20030;-68
2022/08/02 07:40:06;;;;;;;6.28;1.75;;;22.80;56.00;;;;;;6198512;28;20408;-69
2022/08/02 07:43:06;;;;;;;4.75;1.65;;;22.80;55.80;;;;;;6227718;28;20447;-68
2022/08/02 07:46:07;;;;;;;3.38;1.48;;;22.80;55.50;;;;;;6245559;28;20036;-69
2022/08/02 07:49:08;;;;;;;8.50;1.80;;;22.80;55.10;;;;;;6231798;28;20093;-68
2022/08/02 07:52:08;;;;;;;5.80;1.60;;;22.80;54.90;;;;;;6221102;28;20065;-68
2022/08/02 07:55:10;;;;;;;4.90;1.88;;;22.80;55.00;;;;;;6245417;28;20040;-68
2022/08/02 07:58:11;;;;;;;7.03;2.10;;;22.80;54.80;;;;;;6239831;28;20116;-68
2022/08/02 08:01:11;;;;;;;6.55;1.73;;;22.80;54.80;;;;;;6222121;28;20033;-69
2022/08/02 08:04:12;;;;;;;7.70;2.03;;;22.80;54.70;;;;;;6235150;28;20028;-69
2022/08/02 08:07:13;;;;;;;8.10;1.88;;;22.80;54.30;;;;;;6246795;28;20021;-68
2022/08/02 08:10:13;;;;;;;6.88;1.63;;;22.80;54.20;;;;;;6224840;28;20496;-68
2022/08/02 08:13:15;;;;;;;5.28;1.40;;;22.80;54.40;;;;;;6226031;28;20353;-68
2022/08/02 08:16:16;;;;;;;5.93;1.75;;;22.80;54.80;;;;;;6246437;28;20026;-68
2022/08/02 08:19:17;;;;;;;5.80;1.58;;;22.80;54.80;;;;;;6233928;28;20384;-68
2022/08/02 08:22:18;;;;;;;5.15;1.45;;;22.80;54.50;;;;;;6220038;28;20057;-68
2022/08/02 08:25:19;;;;;;;4.25;1.50;;;22.80;54.80;;;;;;6241940;28;20220;-68
2022/08/02 08:28:19;;;;;;;10.38;1.67;;;22.90;55.00;;;;;;6241533;28;20042;-68
2022/08/02 08:31:20;;;;;;;2.17;1.10;;;22.80;55.30;;;;;;6221167;28;21491;-68
2022/08/02 08:34:22;;;;;;;3.75;1.20;;;22.80;55.30;;;;;;6221549;28;20469;-68
2022/08/02 08:37:23;;;;;;;3.17;1.70;;;22.80;55.30;;;;;;6221156;28;20075;-68
2022/08/02 08:40:24;;;;;;;3.58;1.48;;;22.80;55.30;;;;;;6237022;28;20029;-68
2022/08/02 08:43:25;;;;;;;3.20;1.42;;;22.80;55.30;;;;;;6243215;28;20072;-70
2022/08/02 08:46:35;;;;;;;3.67;1.30;;;22.80;55.50;;;;;;6220941;28;20388;-68
2022/08/02 08:49:44;;;;;;;4.95;1.50;;;22.80;55.60;;;;;;6232212;28;20029;-68
2022/08/02 08:53:02;;;;;;;3.85;1.38;;;22.80;55.60;;;;;;6245539;28;20615;-68
2022/08/02 08:56:04;;;;;;;2.42;1.20;;;22.80;55.70;;;;;;6223463;28;20018;-68
2022/08/02 08:59:05;;;;;;;3.80;1.48;;;22.80;55.60;;;;;;6226225;28;20056;-68
2022/08/02 09:02:07;;;;;;;3.10;1.40;;;22.80;55.60;;;;;;6209614;28;20455;-68
2022/08/02 09:05:13;;;;;;;3.78;1.23;;;22.80;55.50;;;;;;6222815;28;20017;-68
2022/08/02 09:08:13;;;;;;;2.97;1.17;;;22.80;55.70;;;;;;6244447;28;20022;-69
2022/08/02 09:11:16;;;;;;;5.78;1.55;;;22.80;55.70;;;;;;6223699;28;20448;-69
2022/08/02 09:14:28;;;;;;;4.43;1.45;;;22.80;55.60;;;;;;6224864;28;20040;-68
2022/08/02 09:17:28;;;;;;;3.20;1.25;;;22.80;55.50;;;;;;6232404;28;20119;-67
2022/08/02 09:20:29;;;;;;;4.95;1.42;;;22.80;55.30;;;;;;6249777;28;20029;-68
2022/08/02 09:23:34;;;;;;;3.47;1.13;;;22.80;55.60;;;;;;6245189;28;20088;-68
2022/08/02 09:26:35;;;;;;;;;;;22.80;55.70;;;;;;6228708;28;20026;-68
2022/08/02 09:29:36;;;;;;;3.97;1.23;;;22.80;55.80;;;;;;6226503;28;19909;-69
2022/08/02 09:32:44;;;;;;;1.80;1.13;;;22.80;55.60;;;;;;6230577;28;20049;-68
2022/08/02 09:35:46;;;;;;;2.70;1.25;;;22.80;55.60;;;;;;6240855;28;20049;-68
2022/08/02 09:39:03;;;;;;;3.22;1.27;;;22.80;55.70;;;;;;6195988;28;20416;-68
2022/08/02 09:42:09;;;;;;;2.40;1.20;;;22.80;55.70;;;;;;6248416;28;20044;-68
2022/08/02 09:45:09;;;;;;;4.13;1.05;;;22.80;55.80;;;;;;6242434;28;20029;-69
2022/08/02 09:48:10;;;;;;;1.77;1.08;;;22.80;55.80;;;;;;6225696;28;20029;-68
2022/08/02 09:51:11;;;;;;;2.85;1.13;;;22.80;55.80;;;;;;6241022;28;20492;-68
2022/08/02 09:54:27;;;;;;;2.58;0.90;;;22.80;55.80;;;;;;6249392;28;20476;-68
2022/08/02 09:57:29;;;;;;;3.25;1.42;;;22.80;55.90;;;;;;6233558;28;20026;-67
2022/08/02 10:00:30;;;;;;;2.38;1.02;;;22.80;55.90;;;;;;6226819;28;20027;-69
2022/08/02 10:03:30;;;;;;;1.58;1.00;;;22.80;55.90;;;;;;6199525;28;20397;-68
2022/08/02 10:06:32;;;;;;;6.28;1.20;;;22.80;55.90;;;;;;6233090;28;20024;-68
2022/08/02 10:09:33;;;;;;;3.45;1.00;;;22.80;55.90;;;;;;6247758;28;20029;-68
2022/08/02 10:12:36;;;;;;;3.78;1.30;;;22.80;55.90;;;;;;6224268;28;20018;-69
2022/08/02 10:15:37;;;;;;;1.52;0.88;;;22.80;55.90;;;;;;6232148;28;20057;-68
2022/08/02 10:18:38;;;;;;;1.27;1.08;;;22.80;56.00;;;;;;6249419;28;20480;-68
2022/08/02 10:22:00;;;;;;;2.42;0.85;;;22.80;56.00;;;;;;6233501;28;20030;-68
2022/08/02 10:25:03;;;;;;;2.88;0.90;;;22.80;56.00;;;;;;6224345;28;20030;-68
2022/08/02 10:28:06;;;;;;;2.65;1.00;;;22.80;56.00;;;;;;6224186;28;20045;-68
2022/08/02 10:31:09;;;;;;;1.25;0.90;;;22.80;56.00;;;;;;6234155;28;20048;-68
2022/08/02 10:34:12;;;;;;;1.90;0.90;;;22.80;56.10;;;;;;6223695;28;20022;-68
2022/08/02 10:37:13;;;;;;;2.17;1.08;;;22.80;56.00;;;;;;6222831;28;20025;-69
2022/08/02 10:40:25;;;;;;;1.50;0.90;;;22.80;56.10;;;;;;6225263;28;20033;-68
2022/08/02 10:43:31;;;;;;;2.75;1.17;;;22.80;56.10;;;;;;6248094;28;20033;-68
2022/08/02 10:46:36;;;;;;;1.75;0.88;;;22.80;56.00;;;;;;6226290;28;20029;-68
2022/08/02 10:49:49;;;;;;;2.03;0.80;;;22.80;56.10;;;;;;6220416;28;20471;-68
2022/08/02 10:53:28;;;;;;;2.03;0.88;;;22.80;56.10;;;;;;6220555;28;20161;-69
2022/08/02 10:56:46;;;;;;;2.38;1.10;;;22.80;56.10;;;;;;6246816;28;20112;-68
2022/08/02 11:00:11;;;;;;;2.40;0.88;;;22.80;56.10;;;;;;6232625;28;20484;-68
2022/08/02 11:03:27;;;;;;;1.35;0.85;;;22.70;56.00;;;;;;6212735;28;20052;-68
2022/08/02 11:06:28;;;;;;;2.13;0.80;;;22.80;56.10;;;;;;6230804;28;20080;-68
2022/08/02 11:09:30;;;;;;;1.60;0.80;;;22.80;56.10;;;;;;6229920;28;20033;-68
2022/08/02 11:12:31;;;;;;;4.32;1.05;;;22.80;56.10;;;;;;6212140;28;20033;-68
2022/08/02 11:15:49;;;;;;;1.52;0.80;;;22.80;56.10;;;;;;6207537;28;20030;-69
2022/08/02 11:18:49;;;;;;;1.02;0.52;;;22.80;56.10;;;;;;6198984;28;20113;-68
2022/08/02 11:22:25;;;;;;;1.60;0.75;;;22.80;56.10;;;;;;6214597;28;20615;-68
2022/08/02 11:25:26;;;;;;;;;;;22.80;56.20;;;;;;6245956;28;20137;-68
2022/08/02 11:28:27;;;;;;;1.60;1.00;;;22.80;56.20;;;;;;6224891;28;19906;-69
2022/08/02 11:31:28;;;;;;;1.83;0.70;;;22.80;56.20;;;;;;6238082;28;20389;-68
2022/08/02 11:34:32;;;;;;;2.25;0.70;;;22.80;56.20;;;;;;6222714;28;20084;-68
2022/08/02 11:37:35;;;;;;;2.42;0.85;;;22.80;56.10;;;;;;6222437;28;20435;-68
2022/08/02 11:40:38;;;;;;;4.20;0.80;;;22.80;56.20;;;;;;6238144;28;20064;-68
2022/08/02 11:43:39;;;;;;;1.20;0.70;;;22.80;56.20;;;;;;6242982;28;20029;-68
2022/08/02 11:46:40;;;;;;;1.23;0.73;;;22.80;56.20;;;;;;6242942;28;20477;-67
2022/08/02 11:49:42;;;;;;;1.83;0.50;;;22.80;56.20;;;;;;6222586;28;20038;-69
2022/08/02 11:52:43;;;;;;;1.75;0.90;;;22.80;56.20;;;;;;6234286;28;20095;-68
2022/08/02 11:55:44;;;;;;;3.20;0.60;;;22.80;56.20;;;;;;6245902;28;20035;-68
2022/08/02 11:59:08;;;;;;;1.25;0.85;;;22.80;56.30;;;;;;6226765;28;20473;-68
2022/08/02 12:02:09;;;;;;;2.13;0.85;;;22.80;56.20;;;;;;6227460;28;20033;-69
2022/08/02 12:05:16;;;;;;;1.73;0.90;;;22.70;56.10;;;;;;6246695;28;20029;-68
2022/08/02 12:08:20;;;;;;;0.95;0.70;;;22.80;56.20;;;;;;6231661;28;20018;-68
2022/08/02 12:11:21;;;;;;;0.85;0.70;;;22.80;56.30;;;;;;6221870;28;20030;-68
2022/08/02 12:14:23;;;;;;;1.00;0.70;;;22.80;56.30;;;;;;6231764;28;20033;-68
2022/08/02 12:20:46;;;;;;;1.02;0.68;;;22.80;56.30;;;;;;6220923;28;20029;-68
2022/08/02 12:23:47;;;;;;;2.13;1.00;;;22.80;56.30;;;;;;6238423;28;20084;-67
2022/08/02 12:26:48;;;;;;;1.60;0.90;;;22.80;56.30;;;;;;6220083;28;20018;-67
2022/08/02 12:30:08;;;;;;;1.02;0.60;;;22.80;56.30;;;;;;6197955;28;20103;-68
2022/08/02 12:33:08;;;;;;;1.02;0.60;;;22.80;56.30;;;;;;6214202;28;20080;-68
2022/08/02 12:36:19;;;;;;;0.60;0.60;;;22.80;56.30;;;;;;6206724;28;21281;-67
2022/08/02 12:39:19;;;;;;;1.17;0.80;;;22.80;56.30;;;;;;6217279;28;20037;-68
2022/08/02 12:42:20;;;;;;;1.88;0.60;;;22.80;56.30;;;;;;6200111;28;20023;-69
2022/08/02 12:45:23;;;;;;;1.85;0.80;;;22.80;56.30;;;;;;6246159;28;20056;-68
2022/08/02 12:48:35;;;;;;;0.88;0.63;;;22.70;56.20;;;;;;6235837;28;20022;-68
2022/08/02 12:51:39;;;;;;;1.25;0.60;;;22.80;56.30;;;;;;6236638;28;20088;-68
2022/08/02 12:54:40;;;;;;;1.17;0.68;;;22.80;56.30;;;;;;6240330;28;20025;-68
2022/08/02 12:58:13;;;;;;;1.50;0.80;;;22.80;56.30;;;;;;6242919;28;20049;-69
2022/08/02 13:01:23;;;;;;;1.77;0.70;;;22.80;56.30;;;;;;6184308;28;20120;-68
2022/08/02 13:04:24;;;;;;;0.90;0.50;;;22.80;56.30;;;;;;6243164;28;20033;-68
2022/08/02 13:07:25;;;;;;;1.38;0.77;;;22.80;56.30;;;;;;6244272;28;20025;-68
2022/08/02 13:10:26;;;;;;;0.52;0.52;;;22.80;56.30;;;;;;6221799;28;20042;-68
2022/08/02 13:13:26;;;;;;;1.17;0.63;;;22.80;56.30;;;;;;6227500;28;20033;-68
2022/08/02 13:16:30;;;;;;;0.52;0.40;;;22.80;56.40;;;;;;6245510;28;20033;-68
2022/08/02 13:19:30;;;;;;;0.95;0.70;;;22.80;56.30;;;;;;6214931;28;20029;-68
2022/08/02 13:22:31;;;;;;;0.60;0.60;;;22.80;56.30;;;;;;6220719;28;20054;-68
2022/08/02 13:25:31;;;;;;;1.42;0.70;;;22.80;56.30;;;;;;6228072;28;20060;-68
2022/08/02 13:28:34;;;;;;;2.25;0.68;;;22.80;56.30;;;;;;6215863;28;20026;-69
2022/08/02 13:31:37;;;;;;;1.05;0.70;;;22.80;56.30;;;;;;6220445;28;20030;-68
2022/08/02 13:34:38;;;;;;;0.75;0.60;;;22.80;56.30;;;;;;6220632;28;20025;-68
2022/08/02 13:37:40;;;;;;;0.70;0.57;;;22.80;56.30;;;;;;6219892;28;20030;-68
2022/08/02 13:44:00;;;;;;;1.75;0.75;;;22.80;56.30;;;;;;6237706;28;20034;-68
2022/08/02 13:47:01;;;;;;;0.40;0.40;;;22.80;56.30;;;;;;6220529;28;20040;-68
2022/08/02 13:50:03;;;;;;;1.70;0.70;;;22.80;56.30;;;;;;6234151;28;20037;-68
2022/08/02 13:53:03;;;;;;;0.95;0.47;;;22.80;56.30;;;;;;6244848;28;20510;-68
2022/08/02 13:56:04;;;;;;;0.70;0.47;;;22.80;56.30;;;;;;6190832;28;20026;-68
2022/08/02 13:59:05;;;;;;;0.80;0.60;;;22.80;57.10;;;;;;6225547;28;20028;-68
2022/08/02 14:02:06;;;;;;;0.77;0.70;;;22.70;56.30;;;;;;6205527;28;20087;-68
2022/08/02 14:05:07;;;;;;;1.02;0.40;;;22.70;56.30;;;;;;6233480;28;20163;-68
2022/08/02 14:08:07;;;;;;;0.88;0.70;;;22.70;56.30;;;;;;6223777;28;20667;-69
2022/08/02 14:11:08;;;;;;;1.02;0.65;;;22.70;56.30;;;;;;6230032;28;20022;-68
2022/08/02 14:14:09;;;;;;;1.23;0.73;;;22.80;56.40;;;;;;6219284;28;20468;-68
2022/08/02 14:17:10;;;;;;;0.70;0.50;;;22.80;56.40;;;;;;6219051;28;20026;-68
2022/08/02 14:20:11;;;;;;;0.70;0.50;;;22.70;56.40;;;;;;6222463;28;20029;-68
2022/08/02 14:23:12;;;;;;;0.75;0.50;;;22.70;56.40;;;;;;6247986;28;20606;-68
2022/08/02 14:26:13;;;;;;;0.57;0.50;;;22.80;56.40;;;;;;6226921;28;20025;-68
2022/08/02 14:29:14;;;;;;;0.50;0.50;;;22.80;56.40;;;;;;6226744;28;20400;-69
2022/08/02 14:32:15;;;;;;;0.60;0.60;;;22.70;56.40;;;;;;6236797;28;20050;-68
2022/08/02 14:35:16;;;;;;;0.95;0.68;;;22.70;56.40;;;;;;6222973;28;20041;-68
2022/08/02 14:38:18;;;;;;;0.70;0.50;;;22.80;56.40;;;;;;6223711;28;20022;-68
2022/08/02 14:41:18;;;;;;;0.50;0.50;;;22.70;56.40;;;;;;6238409;28;20480;-68
2022/08/02 14:44:19;;;;;;;1.17;0.70;;;22.80;56.40;;;;;;6245995;28;20060;-68
2022/08/02 14:47:20;;;;;;;1.20;0.50;;;22.70;56.40;;;;;;6222329;28;20488;-68
2022/08/02 14:50:20;;;;;;;0.55;0.50;;;22.70;56.40;;;;;;6227766;28;20022;-68
2022/08/02 14:53:21;;;;;;;1.92;0.77;;;22.70;56.40;;;;;;6223362;28;20056;-68
2022/08/02 14:56:22;;;;;;;0.93;0.70;;;22.70;56.40;;;;;;6237408;28;20036;-68
2022/08/02 14:59:22;;;;;;;1.15;0.60;;;22.70;56.40;;;;;;6235144;28;20029;-68
2022/08/02 15:02:23;;;;;;;0.98;0.50;;;22.70;56.50;;;;;;6220528;28;20037;-68
2022/08/02 15:05:23;;;;;;;1.13;0.80;;;22.80;56.40;;;;;;6229698;28;20068;-68
2022/08/02 15:08:24;;;;;;;1.15;0.38;;;22.80;56.50;;;;;;6246782;28;20036;-68
2022/08/02 15:11:25;;;;;;;0.98;0.65;;;22.70;56.40;;;;;;6229192;28;20029;-68
2022/08/02 15:14:25;;;;;;;1.08;0.60;;;22.80;56.50;;;;;;6232825;28;20438;-68
2022/08/02 15:17:26;;;;;;;0.52;0.50;;;22.70;56.40;;;;;;6224298;28;20113;-69
2022/08/02 15:20:27;;;;;;;1.30;0.70;;;22.70;56.40;;;;;;6212419;28;20041;-68
2022/08/02 15:23:29;;;;;;;0.40;0.40;;;22.70;56.40;;;;;;6246901;28;20092;-68
2022/08/02 15:26:29;;;;;;;0.40;0.32;;;22.70;56.40;;;;;;6223664;28;20480;-68
2022/08/02 15:29:30;;;;;;;0.40;0.40;;;22.70;56.40;;;;;;6222432;28;20029;-68
2022/08/02 15:32:31;;;;;;;0.50;0.50;;;22.80;56.50;;;;;;6221142;28;20029;-68
2022/08/02 15:35:32;;;;;;;0.57;0.40;;;22.80;56.50;;;;;;6221176;28;20041;-68
2022/08/02 15:38:33;;;;;;;0.70;0.60;;;22.80;56.50;;;;;;6222111;28;20041;-68
2022/08/02 15:41:34;;;;;;;0.40;0.40;;;22.80;56.50;;;;;;6234329;28;20033;-68
2022/08/02 15:44:34;;;;;;;1.00;0.60;;;22.80;56.50;;;;;;6246812;28;20099;-68
2022/08/02 15:47:35;;;;;;;0.60;0.52;;;22.80;56.50;;;;;;6226897;28;20381;-68
2022/08/02 15:50:35;;;;;;;0.60;0.60;;;22.80;56.50;;;;;;6240183;28;20049;-69
2022/08/02 15:53:36;;;;;;;1.38;0.60;;;22.70;56.40;;;;;;6246299;28;20025;-68
2022/08/02 15:56:37;;;;;;;0.60;0.40;;;22.80;56.50;;;;;;6224682;28;20383;-68
2022/08/02 15:59:37;;;;;;;0.47;0.47;;;22.80;56.50;;;;;;6231579;28;20034;-68
2022/08/02 16:02:38;;;;;;;0.82;0.47;;;22.70;56.40;;;;;;6239882;28;20116;-68
2022/08/02 16:05:39;;;;;;;0.45;0.40;;;22.70;56.50;;;;;;6244768;28;20041;-68
2022/08/02 16:08:39;;;;;;;0.88;0.65;;;22.70;56.40;;;;;;6224492;28;20761;-68